^^
Station Historical Data
 
Daily Summary for October 31, 2020 Units:  English    Metric   Both
Daily Weekly Monthly Yearly
  Current: High: Low: Average:
Temperature: 46.5 °F 47 °F 33 °F 38 °F
Dew Point: 36.5 °F 36.9 °F 24.2 °F 29.6 °F
Humidity: 68% 82% 64% 72%
Wind Speed: 16mph 16mph 0mph 9.2mph
Wind Gust: 19mph 19mph - -
WindSSE - - South
Pressure: 30.04 in 30.39 in 30.04 in -
Precipitation: 0.00 in      
 
 
Tabular Data for October 31, 2020
Time Temperature Dew Point Pressure Wind Wind Speed Wind Gust Humidity Rainfall Rate (Hourly) solar
00:00 34.8 °F 24.6 °F 30.37 in West 1 mph 1 mph 66% 0.00 in 0 W/m2
00:05 34.8 °F 24.6 °F 30.37 in NE 1 mph 1 mph 66% 0.00 in 0 W/m2
00:10 34.8 °F 24.6 °F 30.37 in ENE 1 mph 1 mph 66% 0.00 in 0 W/m2
00:15 34.8 °F 24.6 °F 30.37 in NE 1 mph 1 mph 66% 0.00 in 0 W/m2
00:20 34.8 °F 25 °F 30.37 in NNW 1 mph 2 mph 67% 0.00 in 0 W/m2
00:25 34.8 °F 24.6 °F 30.37 in North 1 mph 2 mph 66% 0.00 in 0 W/m2
00:30 34.7 °F 24.5 °F 30.37 in WNW 1 mph 3 mph 66% 0.00 in 0 W/m2
00:35 34.7 °F 24.5 °F 30.37 in WNW 1 mph 3 mph 66% 0.00 in 0 W/m2
00:40 34.6 °F 24.4 °F 30.37 in East 1 mph 1 mph 66% 0.00 in 0 W/m2
00:45 34.6 °F 24.4 °F 30.37 in North 1 mph 1 mph 66% 0.00 in 0 W/m2
00:50 34.5 °F 24.7 °F 30.37 in NW 1 mph 1 mph 67% 0.00 in 0 W/m2
00:55 34.5 °F 24.7 °F 30.37 in North 1 mph 1 mph 67% 0.00 in 0 W/m2
01:00 34.5 °F 24.7 °F 30.37 in WNW 1 mph 2 mph 67% 0.00 in 0 W/m2
01:05 34.4 °F 24.2 °F 30.37 in NE 1 mph 2 mph 66% 0.00 in 0 W/m2
01:10 34.4 °F 24.2 °F 30.38 in NW 1 mph 1 mph 66% 0.00 in 0 W/m2
01:15 34.4 °F 24.6 °F 30.38 in Calm   1 mph 67% 0.00 in 0 W/m2
01:20 34.4 °F 24.6 °F 30.38 in North 1 mph 1 mph 67% 0.00 in 0 W/m2
01:25 34.4 °F 24.6 °F 30.38 in North 1 mph 1 mph 67% 0.00 in 0 W/m2
01:30 34.4 °F 24.9 °F 30.38 in North 1 mph 1 mph 68% 0.00 in 0 W/m2
01:35 34.4 °F 24.6 °F 30.38 in West 1 mph 1 mph 67% 0.00 in 0 W/m2
01:40 34.4 °F 24.6 °F 30.38 in NW 1 mph 1 mph 67% 0.00 in 0 W/m2
01:45 34.4 °F 24.9 °F 30.39 in NW 1 mph 1 mph 68% 0.00 in 0 W/m2
01:50 34.3 °F 24.5 °F 30.39 in Calm   2 mph 67% 0.00 in 0 W/m2
01:55 34.3 °F 24.5 °F 30.38 in WNW 1 mph 2 mph 67% 0.00 in 0 W/m2
02:00 34.3 °F 24.5 °F 30.38 in NE 1 mph 1 mph 67% 0.00 in 0 W/m2
02:05 34.3 °F 24.5 °F 30.38 in North 1 mph 1 mph 67% 0.00 in 0 W/m2
02:10 34.3 °F 24.8 °F 30.38 in North 1 mph 1 mph 68% 0.00 in 0 W/m2
02:15 34.3 °F 24.8 °F 30.38 in NE 1 mph 1 mph 68% 0.00 in 0 W/m2
02:20 34.3 °F 25.2 °F 30.38 in NW 1 mph 1 mph 69% 0.00 in 0 W/m2
02:25 34.2 °F 25.1 °F 30.38 in NNW 1 mph 1 mph 69% 0.00 in 0 W/m2
02:30 34.2 °F 25.1 °F 30.38 in WSW 1 mph 1 mph 69% 0.00 in 0 W/m2
02:35 34.2 °F 25.1 °F 30.38 in North 1 mph 1 mph 69% 0.00 in 0 W/m2
02:40 34.1 °F 25 °F 30.38 in NE 1 mph 3 mph 69% 0.00 in 0 W/m2
02:45 34.1 °F 25 °F 30.38 in East 1 mph 3 mph 69% 0.00 in 0 W/m2
02:50 34.1 °F 25.3 °F 30.38 in SE 2 mph 5 mph 70% 0.00 in 0 W/m2
02:55 34.6 °F 25.8 °F 30.38 in SE 4 mph 8 mph 70% 0.00 in 0 W/m2
03:00 35.1 °F 25.9 °F 30.38 in South 7 mph 7 mph 69% 0.00 in 0 W/m2
03:05 35.4 °F 25.9 °F 30.38 in SSE 7 mph 7 mph 68% 0.00 in 0 W/m2
03:10 35.5 °F 26.3 °F 30.38 in ESE 7 mph 8 mph 69% 0.00 in 0 W/m2
03:15 35.6 °F 26.4 °F 30.39 in South 7 mph 8 mph 69% 0.00 in 0 W/m2
03:20 35.5 °F 25.6 °F 30.39 in SSE 6 mph 6 mph 67% 0.00 in 0 W/m2
03:25 35.5 °F 25.3 °F 30.38 in SSW 4 mph 6 mph 66% 0.00 in 0 W/m2
03:30 35.5 °F 25.6 °F 30.38 in SW 5 mph 5 mph 67% 0.00 in 0 W/m2
03:35 35.5 °F 24.9 °F 30.39 in SSW 6 mph 6 mph 65% 0.00 in 0 W/m2
03:40 35.4 °F 24.8 °F 30.39 in WSW 4 mph 4 mph 65% 0.00 in 0 W/m2
03:45 35.5 °F 24.9 °F 30.39 in SSE 3 mph 4 mph 65% 0.00 in 0 W/m2
03:50 35.5 °F 25.3 °F 30.38 in SW 4 mph 4 mph 66% 0.00 in 0 W/m2
03:55 35.5 °F 26 °F 30.38 in SSE 4 mph 5 mph 68% 0.00 in 0 W/m2
04:00 35.5 °F 25.3 °F 30.38 in SSW 5 mph 5 mph 66% 0.00 in 0 W/m2
04:05 35.6 °F 27.1 °F 30.38 in SW 6 mph 6 mph 71% 0.00 in 0 W/m2
04:10 35.6 °F 26.8 °F 30.38 in South 6 mph 6 mph 70% 0.00 in 0 W/m2
04:15 35.5 °F 26.3 °F 30.38 in SSE 6 mph 6 mph 69% 0.00 in 0 W/m2
04:20 35.4 °F 26.6 °F 30.38 in South 6 mph 6 mph 70% 0.00 in 0 W/m2
04:25 35.5 °F 26.7 °F 30.38 in SSE 6 mph 7 mph 70% 0.00 in 0 W/m2
04:30 35.4 °F 25.9 °F 30.38 in SE 6 mph 7 mph 68% 0.00 in 0 W/m2
04:35 35.4 °F 25.9 °F 30.38 in SE 5 mph 7 mph 68% 0.00 in 0 W/m2
04:40 35.5 °F 26.3 °F 30.38 in SSE 5 mph 8 mph 69% 0.00 in 0 W/m2
04:45 35.5 °F 26.7 °F 30.38 in SSE 6 mph 8 mph 70% 0.00 in 0 W/m2
04:50 35.5 °F 26.3 °F 30.38 in SE 6 mph 6 mph 69% 0.00 in 0 W/m2
04:55 35.5 °F 27 °F 30.38 in South 6 mph 6 mph 71% 0.00 in 0 W/m2
05:00 35.7 °F 27.2 °F 30.38 in SSE 7 mph 9 mph 71% 0.00 in 0 W/m2
05:05 35.7 °F 27.9 °F 30.38 in South 7 mph 9 mph 73% 0.00 in 0 W/m2
05:10 35.6 °F 27.1 °F 30.38 in South 7 mph 7 mph 71% 0.00 in 0 W/m2
05:15 35.6 °F 27.5 °F 30.38 in South 7 mph 8 mph 72% 0.00 in 0 W/m2
05:20 35.6 °F 27.5 °F 30.38 in South 7 mph 7 mph 72% 0.00 in 0 W/m2
05:25 35.5 °F 27.4 °F 30.38 in South 8 mph 11 mph 72% 0.00 in 0 W/m2
05:30 35.5 °F 27.4 °F 30.38 in South 9 mph 9 mph 72% 0.00 in 0 W/m2
05:35 35.4 °F 27.9 °F 30.38 in South 10 mph 11 mph 74% 0.00 in 0 W/m2
05:40 35.2 °F 28.4 °F 30.38 in South 10 mph 10 mph 76% 0.00 in 0 W/m2
05:45 35.1 °F 28.6 °F 30.38 in SSE 10 mph 11 mph 77% 0.00 in 0 W/m2
05:50 34.9 °F 28.1 °F 30.38 in SSE 10 mph 10 mph 76% 0.00 in 0 W/m2
05:55 34.8 °F 28.3 °F 30.38 in South 9 mph 10 mph 77% 0.00 in 0 W/m2
06:00 34.6 °F 28.1 °F 30.38 in South 9 mph 9 mph 77% 0.00 in 0 W/m2
06:05 34.5 °F 27.7 °F 30.39 in South 9 mph 9 mph 76% 0.00 in 0 W/m2
06:10 34.5 °F 28 °F 30.39 in South 8 mph 8 mph 77% 0.00 in 0 W/m2
06:15 34.6 °F 28.1 °F 30.39 in SSW 8 mph 8 mph 77% 0.00 in 0 W/m2
06:20 34.5 °F 28 °F 30.39 in South 8 mph 9 mph 77% 0.00 in 0 W/m2
06:25 34.5 °F 28 °F 30.39 in South 8 mph 10 mph 77% 0.00 in 0 W/m2
06:30 34.6 °F 28.4 °F 30.39 in South 8 mph 8 mph 78% 0.00 in 0 W/m2
06:35 34.6 °F 28.4 °F 30.39 in South 8 mph 8 mph 78% 0.00 in 0 W/m2
06:40 34.5 °F 28.7 °F 30.39 in SSE 8 mph 8 mph 79% 0.00 in 0 W/m2
06:45 34.3 °F 28.5 °F 30.39 in South 9 mph 9 mph 79% 0.00 in 0 W/m2
06:50 34.1 °F 28.9 °F 30.39 in SSE 9 mph 9 mph 81% 0.00 in 0 W/m2
06:55 33.9 °F 28.7 °F 30.39 in SSE 9 mph 10 mph 81% 0.00 in 0 W/m2
07:00 33.7 °F 28.5 °F 30.39 in SSE 10 mph 11 mph 81% 0.00 in 0 W/m2
07:05 33.7 °F 28.5 °F 30.39 in SSE 10 mph 11 mph 81% 0.00 in 0 W/m2
07:10 33.6 °F 28.4 °F 30.39 in South 9 mph 9 mph 81% 0.00 in 0 W/m2
07:15 33.5 °F 28.3 °F 30.39 in SSE 9 mph 9 mph 81% 0.00 in 0 W/m2
07:20 33.5 °F 28.3 °F 30.39 in South 9 mph 9 mph 81% 0.00 in 0 W/m2
07:25 33.4 °F 28.2 °F 30.39 in SSE 10 mph 10 mph 81% 0.00 in 0 W/m2
07:30 33.3 °F 28.1 °F 30.39 in South 10 mph 10 mph 81% 0.00 in 0 W/m2
07:35 33.2 °F 28 °F 30.39 in SSE 10 mph 10 mph 81% 0.00 in 0 W/m2
07:40 33.2 °F 28.3 °F 30.39 in SSE 10 mph 10 mph 82% 0.00 in 0 W/m2
07:45 33.1 °F 28.2 °F 30.39 in SSE 9 mph 11 mph 82% 0.00 in 0 W/m2
07:50 33.1 °F 27.9 °F 30.39 in SSE 10 mph 10 mph 81% 0.00 in 0 W/m2
07:55 33.2 °F 28 °F 30.39 in SSE 10 mph 10 mph 81% 0.00 in 0 W/m2
08:00 33.3 °F 28.1 °F 30.39 in SSE 9 mph 11 mph 81% 0.00 in 0 W/m2
08:05 33.3 °F 27.8 °F 30.39 in SSE 9 mph 11 mph 80% 0.00 in 0 W/m2
08:10 33.3 °F 28.1 °F 30.39 in South 9 mph 9 mph 81% 0.00 in 5 W/m2
08:15 33.3 °F 28.1 °F 30.38 in South 9 mph 9 mph 81% 0.00 in 7 W/m2
08:20 33.4 °F 28.2 °F 30.39 in SSE 9 mph 12 mph 81% 0.00 in 11 W/m2
08:25 33.3 °F 28.1 °F 30.38 in South 10 mph 12 mph 81% 0.00 in 12 W/m2
08:30 33.2 °F 28 °F 30.38 in South 10 mph 10 mph 81% 0.00 in 14 W/m2
08:35 33.1 °F 28.2 °F 30.38 in SSE 10 mph 10 mph 82% 0.00 in 19 W/m2
08:40 33.1 °F 28.2 °F 30.38 in South 10 mph 11 mph 82% 0.00 in 18 W/m2
08:45 33.1 °F 27.9 °F 30.38 in SSE 10 mph 11 mph 81% 0.00 in 21 W/m2
08:50 33 °F 27.8 °F 30.38 in SSE 10 mph 10 mph 81% 0.00 in 21 W/m2
08:55 33 °F 27.5 °F 30.39 in SSE 10 mph 10 mph 80% 0.00 in 23 W/m2
09:00 33 °F 27.8 °F 30.39 in SSE 10 mph 10 mph 81% 0.00 in 23 W/m2
09:05 33 °F 27.8 °F 30.39 in SSE 10 mph 12 mph 81% 0.00 in 25 W/m2
09:10 33.1 °F 27.9 °F 30.39 in SSE 10 mph 11 mph 81% 0.00 in 26 W/m2
09:15 33.2 °F 28 °F 30.39 in South 10 mph 11 mph 81% 0.00 in 28 W/m2
09:20 33.4 °F 27.9 °F 30.39 in South 10 mph 10 mph 80% 0.00 in 40 W/m2
09:25 33.7 °F 27.9 °F 30.39 in South 10 mph 10 mph 79% 0.00 in 32 W/m2
09:30 33.9 °F 27.8 °F 30.39 in SSE 11 mph 11 mph 78% 0.00 in 32 W/m2
09:35 34.1 °F 28.3 °F 30.39 in SSE 10 mph 11 mph 79% 0.00 in 33 W/m2
09:40 34.3 °F 28.2 °F 30.39 in South 10 mph 10 mph 78% 0.00 in 118 W/m2
09:45 34.4 °F 27.9 °F 30.39 in South 10 mph 11 mph 77% 0.00 in 62 W/m2
09:50 34.5 °F 27.7 °F 30.39 in SSE 10 mph 10 mph 76% 0.00 in 53 W/m2
09:55 34.8 °F 28 °F 30.39 in SSE 10 mph 10 mph 76% 0.00 in 202 W/m2
10:00 34.9 °F 27.5 °F 30.39 in SSE 10 mph 10 mph 74% 0.00 in 53 W/m2
10:05 35 °F 27.9 °F 30.38 in South 10 mph 10 mph 75% 0.00 in 39 W/m2
10:10 35.1 °F 28 °F 30.38 in SSE 10 mph 14 mph 75% 0.00 in 44 W/m2
10:15 35.3 °F 28.5 °F 30.38 in South 11 mph 14 mph 76% 0.00 in 37 W/m2
10:20 35.7 °F 28.2 °F 30.37 in SSE 12 mph 16 mph 74% 0.00 in 37 W/m2
10:25 35.7 °F 27.9 °F 30.37 in South 12 mph 16 mph 73% 0.00 in 40 W/m2
10:30 35.9 °F 28.4 °F 30.37 in South 13 mph 13 mph 74% 0.00 in 39 W/m2
10:35 36 °F 28.2 °F 30.37 in South 13 mph 13 mph 73% 0.00 in 40 W/m2
10:40 35.9 °F 28.1 °F 30.36 in SSE 13 mph 14 mph 73% 0.00 in 39 W/m2
10:45 35.9 °F 27.4 °F 30.36 in South 13 mph 14 mph 71% 0.00 in 70 W/m2
10:50 36.1 °F 27.9 °F 30.35 in SSE 13 mph 13 mph 72% 0.00 in 67 W/m2
10:55 36.3 °F 28.5 °F 30.36 in South 14 mph 16 mph 73% 0.00 in 60 W/m2
11:00 36.4 °F 28.9 °F 30.35 in SSE 13 mph 13 mph 74% 0.00 in 58 W/m2
11:05 36.6 °F 28.8 °F 30.35 in South 12 mph 16 mph 73% 0.00 in 128 W/m2
11:10 36.6 °F 28.4 °F 30.35 in South 12 mph 15 mph 72% 0.00 in 62 W/m2
11:15 37 °F 29.1 °F 30.34 in South 13 mph 15 mph 73% 0.00 in 153 W/m2
11:20 37.3 °F 29.4 °F 30.34 in South 13 mph 15 mph 73% 0.00 in 58 W/m2
11:25 37.3 °F 29.1 °F 30.33 in SSW 14 mph 16 mph 72% 0.00 in 72 W/m2
11:30 37.6 °F 30.1 °F 30.33 in South 14 mph 16 mph 74% 0.00 in 107 W/m2
11:35 37.9 °F 30 °F 30.33 in SSW 15 mph 16 mph 73% 0.00 in 176 W/m2
11:40 38.1 °F 29.9 °F 30.33 in SSW 14 mph 14 mph 72% 0.00 in 46 W/m2
11:45 38.3 °F 30.4 °F 30.33 in SSW 13 mph 14 mph 73% 0.00 in 44 W/m2
11:50 38.8 °F 30.2 °F 30.33 in SSW 12 mph 12 mph 71% 0.00 in 56 W/m2
11:55 38.9 °F 30.6 °F 30.33 in SSW 12 mph 12 mph 72% 0.00 in 88 W/m2
12:00 39 °F 30.4 °F 30.32 in SSW 13 mph 15 mph 71% 0.00 in 271 W/m2
12:05 39.2 °F 30.6 °F 30.32 in SSW 14 mph 15 mph 71% 0.00 in 318 W/m2
12:10 39.4 °F 30.8 °F 30.31 in SSW 15 mph 15 mph 71% 0.00 in 492 W/m2
12:15 39.6 °F 30.6 °F 30.31 in South 14 mph 15 mph 70% 0.00 in 494 W/m2
12:20 39.9 °F 30.9 °F 30.31 in SW 13 mph 14 mph 70% 0.00 in 424 W/m2
12:25 40 °F 30.6 °F 30.31 in SSW 13 mph 14 mph 69% 0.00 in 250 W/m2
12:30 39.8 °F 30.8 °F 30.30 in SSW 13 mph 15 mph 70% 0.00 in 468 W/m2
12:35 40 °F 31 °F 30.30 in SW 13 mph 15 mph 70% 0.00 in 422 W/m2
12:40 40.6 °F 32.3 °F 30.30 in SW 13 mph 15 mph 72% 0.00 in 496 W/m2
12:45 40.8 °F 32.8 °F 30.29 in South 12 mph 15 mph 73% 0.00 in 543 W/m2
12:50 41.1 °F 31.7 °F 30.29 in South 12 mph 13 mph 69% 0.00 in 513 W/m2
12:55 41.3 °F 31.9 °F 30.29 in South 11 mph 13 mph 69% 0.00 in 519 W/m2
13:00 41.4 °F 32 °F 30.28 in South 11 mph 11 mph 69% 0.00 in 520 W/m2
13:05 41.8 °F 32.7 °F 30.28 in South 12 mph 12 mph 70% 0.00 in 527 W/m2
13:10 41.8 °F 32.4 °F 30.27 in South 12 mph 12 mph 69% 0.00 in 587 W/m2
13:15 41.6 °F 32.5 °F 30.27 in South 12 mph 12 mph 70% 0.00 in 550 W/m2
13:20 42.1 °F 33 °F 30.27 in South 12 mph 12 mph 70% 0.00 in 527 W/m2
13:25 42.4 °F 33.3 °F 30.26 in SSW 12 mph 14 mph 70% 0.00 in 524 W/m2
13:30 42.6 °F 33.1 °F 30.26 in SSW 12 mph 12 mph 69% 0.00 in 524 W/m2
13:35 42.5 °F 32.3 °F 30.25 in South 12 mph 15 mph 67% 0.00 in 522 W/m2
13:40 42.7 °F 33.2 °F 30.25 in SSW 12 mph 12 mph 69% 0.00 in 517 W/m2
13:45 42.9 °F 33.8 °F 30.24 in South 13 mph 14 mph 70% 0.00 in 513 W/m2
13:50 43 °F 33.9 °F 30.24 in SSW 13 mph 17 mph 70% 0.00 in 510 W/m2
13:55 43.1 °F 34 °F 30.24 in SSW 13 mph 17 mph 70% 0.00 in 517 W/m2
14:00 43.1 °F 34.3 °F 30.23 in SW 14 mph 14 mph 71% 0.00 in 483 W/m2
14:05 43.4 °F 34.3 °F 30.23 in SSW 14 mph 16 mph 70% 0.00 in 146 W/m2
14:10 43.9 °F 34.7 °F 30.22 in SSW 15 mph 19 mph 70% 0.00 in 167 W/m2
14:15 44 °F 34.8 °F 30.22 in SSW 15 mph 19 mph 70% 0.00 in 496 W/m2
14:20 44.3 °F 35.1 °F 30.21 in SSW 15 mph 15 mph 70% 0.00 in 322 W/m2
14:25 44.5 °F 35.7 °F 30.20 in SSW 14 mph 15 mph 71% 0.00 in 497 W/m2
14:30 44.6 °F 36.1 °F 30.20 in SSW 14 mph 14 mph 72% 0.00 in 489 W/m2
14:35 44.5 °F 35.7 °F 30.20 in SW 14 mph 15 mph 71% 0.00 in 485 W/m2
14:40 45 °F 36.2 °F 30.20 in SW 14 mph 14 mph 71% 0.00 in 485 W/m2
14:45 44.8 °F 35.2 °F 30.20 in SSW 14 mph 15 mph 69% 0.00 in 246 W/m2
14:50 45.2 °F 36.7 °F 30.19 in SSW 15 mph 15 mph 72% 0.00 in 149 W/m2
14:55 45.3 °F 35.4 °F 30.18 in SSW 14 mph 15 mph 68% 0.00 in 118 W/m2
15:00 45.4 °F 36.2 °F 30.18 in SSW 12 mph 17 mph 70% 0.00 in 62 W/m2
15:05 45.3 °F 35.4 °F 30.17 in SSW 13 mph 17 mph 68% 0.00 in 102 W/m2
15:10 45.7 °F 36.8 °F 30.17 in South 13 mph 13 mph 71% 0.00 in 172 W/m2
15:15 45.5 °F 35.9 °F 30.16 in SSW 13 mph 16 mph 69% 0.00 in 357 W/m2
15:20 45.7 °F 35.7 °F 30.16 in South 13 mph 16 mph 68% 0.00 in 153 W/m2
15:25 45.9 °F 35.2 °F 30.15 in SSW 14 mph 16 mph 66% 0.00 in 195 W/m2
15:30 46 °F 35.3 °F 30.15 in SSW 15 mph 16 mph 66% 0.00 in 81 W/m2
15:35 46.1 °F 35.4 °F 30.15 in SSW 15 mph 16 mph 66% 0.00 in 401 W/m2
15:40 46.2 °F 36.2 °F 30.15 in SSW 14 mph 14 mph 68% 0.00 in 392 W/m2
15:45 46.2 °F 35.5 °F 30.14 in South 14 mph 14 mph 66% 0.00 in 348 W/m2
15:50 46.4 °F 36 °F 30.14 in South 14 mph 14 mph 67% 0.00 in 98 W/m2
15:55 46.4 °F 36 °F 30.13 in SSW 13 mph 14 mph 67% 0.00 in 47 W/m2
16:00 46.5 °F 36.1 °F 30.13 in SSW 14 mph 16 mph 67% 0.00 in 93 W/m2
16:05 46.6 °F 35.8 °F 30.13 in South 13 mph 16 mph 66% 0.00 in 230 W/m2
16:10 46.6 °F 35.8 °F 30.12 in SSW 14 mph 14 mph 66% 0.00 in 47 W/m2
16:15 46.7 °F 36.3 °F 30.12 in SSW 14 mph 14 mph 67% 0.00 in 60 W/m2
16:20 46.5 °F 36.9 °F 30.11 in SSW 12 mph 12 mph 69% 0.00 in 267 W/m2
16:25 46.8 °F 36.8 °F 30.11 in South 13 mph 16 mph 68% 0.00 in 220 W/m2
16:30 46.9 °F 36.5 °F 30.10 in South 14 mph 14 mph 67% 0.00 in 241 W/m2
16:35 46.9 °F 35.7 °F 30.10 in South 14 mph 14 mph 65% 0.00 in 262 W/m2
16:40 46.9 °F 35.4 °F 30.10 in South 14 mph 14 mph 64% 0.00 in 214 W/m2
16:45 47 °F 36.2 °F 30.10 in South 14 mph 14 mph 66% 0.00 in 229 W/m2
16:50 47 °F 36.2 °F 30.09 in South 13 mph 13 mph 66% 0.00 in 223 W/m2
16:55 46.9 °F 36.1 °F 30.08 in South 13 mph 16 mph 66% 0.00 in 207 W/m2
17:00 47 °F 36.2 °F 30.08 in South 14 mph 14 mph 66% 0.00 in 202 W/m2
17:05 46.8 °F 36.4 °F 30.07 in South 15 mph 17 mph 67% 0.00 in 130 W/m2
17:10 46.9 °F 35.7 °F 30.07 in South 14 mph 14 mph 65% 0.00 in 81 W/m2
17:15 46.9 °F 36.9 °F 30.07 in South 14 mph 14 mph 68% 0.00 in 163 W/m2
17:20 46.9 °F 36.1 °F 30.06 in South 14 mph 17 mph 66% 0.00 in 149 W/m2
17:25 46.8 °F 36.8 °F 30.06 in South 14 mph 17 mph 68% 0.00 in 137 W/m2
17:30 46.8 °F 36.8 °F 30.06 in South 12 mph 12 mph 68% 0.00 in 53 W/m2
17:35 46.5 °F 36.9 °F 30.06 in South 12 mph 12 mph 69% 0.00 in 47 W/m2
17:40 46.5 °F 36.9 °F 30.05 in SSE 11 mph 15 mph 69% 0.00 in 26 W/m2
17:45 46.6 °F 36.6 °F 30.05 in SSE 14 mph 18 mph 68% 0.00 in 25 W/m2
17:50 46.6 °F 36.2 °F 30.04 in South 15 mph 15 mph 67% 0.00 in 25 W/m2
17:55 46.5 °F 36.5 °F 30.04 in SSE 16 mph 19 mph 68% 0.00 in 21 W/m2
Sand Point, Michigan, USA
Compliments of Weather Underground - 2 mb